Time;durP1;ratioP1;P1;durP2;ratioP2;P2;SDS_P1;SDS_P2;PMS_P1;PMS_P2;Temp;Humidity;BMP_temperature;BMP_pressure;BME280_temperature;BME280_humidity;BME280_pressure;Samples;Min_cycle;Max_cycle;Signal;HPM_P1;HPM_P2
2023/12/23 00:00:18;;;;;;;0.20;0.00;;;;;;;7.84;76.20;99532.25;10242542;28;20126;-83
2023/12/23 00:05:19;;;;;;;0.43;0.00;;;;;;;7.75;76.97;99520.78;10256688;28;20470;-84
2023/12/23 00:10:22;;;;;;;0.08;0.00;;;;;;;7.77;76.59;99523.31;10259852;28;20117;-84
2023/12/23 00:15:24;;;;;;;0.17;0.00;;;;;;;7.78;76.02;99543.69;10241274;28;20079;-85
2023/12/23 00:20:26;;;;;;;1.65;0.00;;;;;;;7.90;75.74;99569.03;10240942;28;20379;-85
2023/12/23 00:25:29;;;;;;;1.77;0.28;;;;;;;8.02;74.67;99566.78;10234520;28;20460;-84
2023/12/23 00:30:31;;;;;;;0.00;0.00;;;;;;;8.09;74.25;99575.72;10247343;28;20107;-85
2023/12/23 00:35:33;;;;;;;0.20;0.00;;;;;;;8.19;74.03;99596.91;10246480;28;20402;-85
2023/12/23 00:40:35;;;;;;;1.83;0.10;;;;;;;8.01;74.39;99608.75;10239162;28;20102;-85
2023/12/23 00:45:37;;;;;;;0.65;0.00;;;;;;;7.94;74.57;99626.53;10254090;28;20053;-85
2023/12/23 00:50:39;;;;;;;1.98;0.10;;;;;;;7.85;75.29;99611.53;10255137;28;20472;-85
2023/12/23 00:55:40;;;;;;;0.35;0.05;;;;;;;7.78;75.46;99634.63;10258947;28;20047;-85
2023/12/23 01:00:42;;;;;;;1.83;0.10;;;;;;;7.77;75.58;99641.84;10257101;28;20054;-85
2023/12/23 01:05:44;;;;;;;0.30;0.00;;;;;;;7.82;75.08;99687.63;10246110;28;20032;-84
2023/12/23 01:10:45;;;;;;;0.30;0.00;;;;;;;7.85;75.36;99663.19;10253221;28;20047;-84
2023/12/23 01:15:47;;;;;;;1.40;0.10;;;;;;;7.97;75.46;99665.47;10252022;28;20406;-83
2023/12/23 01:20:49;;;;;;;1.30;0.00;;;;;;;8.08;75.27;99665.09;10241568;28;20125;-83
2023/12/23 01:25:51;;;;;;;2.63;0.00;;;;;;;8.22;74.32;99661.66;10249262;28;20047;-84
2023/12/23 01:30:52;;;;;;;0.45;0.10;;;;;;;8.23;74.02;99676.69;10250267;28;20399;-83
2023/12/23 01:35:54;;;;;;;2.95;0.10;;;;;;;8.39;73.25;99657.00;10244978;28;20049;-82
2023/12/23 01:40:56;;;;;;;1.08;0.10;;;;;;;8.46;72.59;99679.41;10262828;28;20051;-82
2023/12/23 01:45:59;;;;;;;0.50;0.00;;;;;;;8.59;72.44;99696.72;10292958;28;20031;-82
2023/12/23 01:51:02;;;;;;;0.50;0.00;;;;;;;8.69;72.05;99713.41;10310041;28;20035;-82
2023/12/23 01:56:04;;;;;;;3.95;0.03;;;;;;;8.70;71.58;99713.19;10288021;28;20047;-82
2023/12/23 02:01:05;;;;;;;0.32;0.00;;;;;;;8.39;73.01;99715.06;10258448;28;20055;-83
2023/12/23 02:06:09;;;;;;;0.55;0.10;;;;;;;8.36;72.98;99713.59;10268404;28;20077;-83
2023/12/23 02:11:19;;;;;;;0.85;0.10;;;;;;;8.54;72.90;99707.97;10266569;28;20067;-83
2023/12/23 02:16:21;;;;;;;2.10;0.08;;;;;;;8.73;72.34;99715.53;10257132;28;20538;-83
2023/12/23 02:21:23;;;;;;;0.70;0.00;;;;;;;8.85;71.40;99720.47;10297204;28;20051;-83
2023/12/23 02:26:29;;;;;;;2.13;0.00;;;;;;;9.06;71.52;99714.41;10303747;28;20078;-82
2023/12/23 02:31:31;;;;;;;1.30;0.63;;;;;;;9.07;70.93;99721.44;10321249;28;20019;-82
2023/12/23 02:36:33;;;;;;;1.38;0.75;;;;;;;9.12;71.17;99709.16;10277933;28;20050;-82
2023/12/23 02:41:34;;;;;;;4.65;0.52;;;;;;;9.13;71.22;99705.47;10254291;28;20130;-82
2023/12/23 02:46:37;;;;;;;1.27;0.10;;;;;;;9.18;71.19;99710.25;10253920;28;20039;-82
2023/12/23 02:51:39;;;;;;;0.17;0.10;;;;;;;9.15;71.98;99704.47;10232186;28;20035;-82
2023/12/23 02:56:40;;;;;;;2.95;0.17;;;;;;;9.22;71.64;99705.38;10251758;28;20122;-83
2023/12/23 03:01:42;;;;;;;0.95;0.03;;;;;;;9.28;72.04;99693.91;10252285;28;20043;-83
2023/12/23 03:06:43;;;;;;;0.40;0.00;;;;;;;9.33;71.67;99681.63;10239916;28;20498;-82
2023/12/23 03:11:45;;;;;;;0.03;0.03;;;;;;;9.33;72.09;99665.53;10251964;28;20055;-82
2023/12/23 03:16:46;;;;;;;0.40;0.10;;;;;;;9.33;72.14;99676.25;10255256;28;20138;-82
2023/12/23 03:21:48;;;;;;;1.08;0.20;;;;;;;9.24;73.09;99655.94;10245527;28;20051;-82
2023/12/23 03:26:49;;;;;;;3.33;0.13;;;;;;;9.23;73.55;99656.09;10245623;28;20442;-82
2023/12/23 03:31:51;;;;;;;0.43;0.30;;;;;;;9.16;73.73;99645.25;10249337;28;20538;-82
2023/12/23 03:36:52;;;;;;;2.47;0.10;;;;;;;9.11;73.96;99636.97;10249910;28;20057;-82
2023/12/23 03:41:54;;;;;;;0.35;0.20;;;;;;;9.12;74.21;99638.59;10243119;28;20057;-82
2023/12/23 03:46:56;;;;;;;0.70;0.10;;;;;;;9.09;74.23;99628.25;10232279;28;20067;-82
2023/12/23 03:51:58;;;;;;;0.75;0.30;;;;;;;9.11;74.58;99620.88;10255904;28;20410;-82
2023/12/23 03:56:59;;;;;;;0.30;0.10;;;;;;;9.11;74.65;99615.50;10251215;28;20448;-82
2023/12/23 04:02:01;;;;;;;1.20;0.10;;;;;;;9.11;74.99;99610.97;10256884;28;20065;-83
2023/12/23 04:07:02;;;;;;;0.63;0.20;;;;;;;9.07;75.22;99608.84;10254138;28;20046;-83
2023/12/23 04:12:04;;;;;;;2.47;0.30;;;;;;;8.99;75.40;99598.22;10257658;28;20043;-83
2023/12/23 04:17:07;;;;;;;0.60;0.10;;;;;;;8.98;75.66;99600.03;10254221;28;20042;-83
2023/12/23 04:22:08;;;;;;;0.60;0.10;;;;;;;8.92;75.96;99590.91;10249899;28;20518;-82
2023/12/23 04:27:10;;;;;;;0.45;0.10;;;;;;;8.94;76.15;99585.34;10243061;28;20071;-82
2023/12/23 04:32:11;;;;;;;3.35;0.30;;;;;;;9.06;75.57;99567.81;10250380;28;20061;-82
2023/12/23 04:37:13;;;;;;;5.22;0.75;;;;;;;9.11;75.73;99560.03;10230875;28;20070;-82
2023/12/23 04:42:14;;;;;;;4.28;0.50;;;;;;;9.15;76.04;99563.19;10247485;28;20052;-82
2023/12/23 04:47:16;;;;;;;1.75;0.30;;;;;;;9.11;76.54;99559.19;10242991;28;20137;-82
2023/12/23 04:52:17;;;;;;;3.30;0.90;;;;;;;9.08;76.53;99563.09;10246600;28;20457;-83
2023/12/23 04:57:19;;;;;;;2.08;0.30;;;;;;;9.07;76.79;99565.97;10259166;28;20057;-82
2023/12/23 05:02:21;;;;;;;3.05;0.60;;;;;;;9.13;76.91;99546.44;10261124;28;20125;-82
2023/12/23 05:07:22;;;;;;;7.32;0.77;;;;;;;9.19;76.71;99537.66;10262581;28;20184;-82
2023/12/23 05:12:24;;;;;;;1.83;0.30;;;;;;;9.27;76.83;99528.66;10280458;28;20059;-83
2023/12/23 05:17:25;;;;;;;3.42;0.70;;;;;;;9.40;76.79;99530.66;10259444;28;20474;-82
2023/12/23 05:22:27;;;;;;;1.10;0.40;;;;;;;9.38;76.94;99521.97;10251313;28;20052;-82
2023/12/23 05:27:29;;;;;;;2.38;0.63;;;;;;;9.35;77.48;99512.47;10258348;28;20050;-82
2023/12/23 05:32:30;;;;;;;2.25;0.32;;;;;;;9.33;77.87;99519.88;10253571;28;20047;-82
2023/12/23 05:37:34;;;;;;;2.15;0.40;;;;;;;9.29;77.81;99522.09;10266343;28;20054;-83
2023/12/23 05:42:35;;;;;;;5.32;0.43;;;;;;;9.33;77.87;99523.38;10292151;28;20048;-83
2023/12/23 05:47:37;;;;;;;4.30;0.47;;;;;;;9.30;78.12;99520.22;10274749;28;20043;-83
2023/12/23 05:52:39;;;;;;;1.42;0.30;;;;;;;9.26;78.38;99529.69;10296849;28;20055;-83
2023/12/23 05:57:40;;;;;;;3.75;0.38;;;;;;;9.27;78.48;99518.78;10302036;28;20048;-84
2023/12/23 06:02:42;;;;;;;2.40;0.40;;;;;;;9.25;78.76;99510.09;10298267;28;20078;-84
2023/12/23 06:07:44;;;;;;;0.82;0.20;;;;;;;9.25;78.64;99502.03;10294554;28;20058;-84
2023/12/23 06:12:46;;;;;;;1.02;0.30;;;;;;;9.24;79.01;99500.38;10308974;28;20035;-86
2023/12/23 06:17:50;;;;;;;3.05;0.20;;;;;;;9.33;78.49;99498.41;10310221;28;20039;-85
2023/12/23 06:22:52;;;;;;;2.75;0.40;;;;;;;9.31;78.66;99490.56;10306840;28;20240;-86
2023/12/23 06:27:54;;;;;;;2.05;0.30;;;;;;;9.29;78.97;99487.22;10290735;28;20037;-86
2023/12/23 06:32:56;;;;;;;1.77;0.38;;;;;;;9.33;78.98;99479.63;10293062;28;20077;-86
2023/12/23 06:37:57;;;;;;;1.40;0.20;;;;;;;9.29;79.23;99478.34;10299838;28;20039;-86
2023/12/23 06:43:00;;;;;;;3.60;0.30;;;;;;;9.29;79.32;99478.34;10285953;28;20050;-86
2023/12/23 06:48:22;;;;;;;1.52;0.68;;;;;;;9.36;79.35;99481.97;10274592;28;20463;-87
2023/12/23 06:53:24;;;;;;;5.15;0.20;;;;;;;9.36;79.15;99473.91;10235518;28;20047;-87
2023/12/23 06:58:27;;;;;;;1.92;0.10;;;;;;;9.41;79.12;99465.28;10264526;28;20079;-87
2023/12/23 07:03:29;;;;;;;1.33;0.20;;;;;;;9.42;79.62;99469.59;10257183;28;20094;-87
2023/12/23 07:08:30;;;;;;;0.20;0.10;;;;;;;9.36;79.99;99486.47;10253036;28;20050;-85
2023/12/23 07:18:37;;;;;;;0.70;0.60;;;;;;;9.48;79.79;99479.59;10210080;29;20047;-69
2023/12/23 07:23:39;;;;;;;1.27;0.13;;;;;;;9.46;80.11;99482.47;10208774;29;20044;-69
2023/12/23 07:28:40;;;;;;;1.20;0.30;;;;;;;9.48;79.84;99476.94;10206789;29;20071;-69
2023/12/23 07:33:42;;;;;;;1.95;0.10;;;;;;;9.54;79.92;99478.84;10198845;28;20047;-69
2023/12/23 07:38:44;;;;;;;2.08;0.17;;;;;;;9.60;79.72;99490.66;10173240;29;20055;-69
2023/12/23 07:43:46;;;;;;;0.60;0.10;;;;;;;9.63;79.55;99490.28;10188542;29;20529;-65
2023/12/23 07:48:47;;;;;;;2.40;0.10;;;;;;;9.61;80.06;99485.09;10181277;29;20051;-63
2023/12/23 07:53:48;;;;;;;1.45;0.32;;;;;;;9.60;80.23;99483.44;10184476;29;20812;-64
2023/12/23 07:58:50;;;;;;;2.92;0.20;;;;;;;9.64;79.99;99500.00;10170428;29;20067;-64
2023/12/23 08:03:51;;;;;;;2.03;0.30;;;;;;;9.69;79.94;99481.44;10188928;29;20122;-64
2023/12/23 08:08:53;;;;;;;0.43;0.10;;;;;;;9.71;79.83;99503.56;10188207;29;20043;-65
2023/12/23 08:13:54;;;;;;;0.55;0.10;;;;;;;9.79;79.99;99497.22;10182218;29;20504;-65
2023/12/23 08:18:56;;;;;;;0.55;0.15;;;;;;;9.77;79.82;99480.50;10187289;29;20066;-65
2023/12/23 08:23:57;;;;;;;0.55;0.20;;;;;;;9.77;80.05;99469.75;10188640;29;20148;-65
2023/12/23 08:28:59;;;;;;;1.02;0.10;;;;;;;9.87;79.77;99487.22;10184631;29;20051;-66
2023/12/23 08:34:00;;;;;;;2.85;0.10;;;;;;;9.88;79.67;99490.72;10187832;29;20050;-64
2023/12/23 08:39:02;;;;;;;1.95;0.10;;;;;;;9.88;79.66;99493.41;10189866;29;20110;-65
2023/12/23 08:44:04;;;;;;;1.02;0.10;;;;;;;9.94;79.59;99500.69;10190471;29;20705;-64
2023/12/23 08:49:05;;;;;;;1.83;0.20;;;;;;;9.92;79.56;99494.69;10180255;29;20047;-69
2023/12/23 08:54:07;;;;;;;1.40;0.20;;;;;;;9.92;79.90;99497.38;10187727;29;20719;-66
2023/12/23 08:59:08;;;;;;;1.35;0.20;;;;;;;9.89;79.81;99495.91;10189635;29;20045;-63
2023/12/23 09:04:10;;;;;;;5.65;0.10;;;;;;;9.91;79.87;99503.75;10189315;29;20044;-65
2023/12/23 09:09:11;;;;;;;1.20;0.20;;;;;;;9.86;80.25;99509.69;10188973;29;20515;-64
2023/12/23 09:14:14;;;;;;;1.85;0.20;;;;;;;9.95;79.66;99509.56;10173965;29;20055;-66
2023/12/23 09:19:16;;;;;;;0.70;0.10;;;;;;;9.92;79.81;99505.41;10188120;29;20076;-64
2023/12/23 09:24:18;;;;;;;1.85;0.10;;;;;;;9.89;79.66;99506.63;10185190;29;20130;-64
2023/12/23 09:29:20;;;;;;;2.88;0.10;;;;;;;9.90;79.80;99516.34;10190525;29;20059;-65
2023/12/23 09:34:21;;;;;;;2.15;0.20;;;;;;;9.91;79.94;99506.41;10190169;29;20059;-65
2023/12/23 09:39:23;;;;;;;1.55;0.50;;;;;;;9.88;80.03;99504.13;10187735;29;20058;-66
2023/12/23 09:44:24;;;;;;;2.60;0.17;;;;;;;9.92;79.69;99521.53;10215598;28;20201;-67
2023/12/23 09:49:27;;;;;;;7.32;0.38;;;;;;;9.91;79.65;99525.22;10219220;28;20040;-67
2023/12/23 09:54:32;;;;;;;0.90;0.13;;;;;;;9.97;79.44;99537.03;10222768;29;20036;-68
2023/12/23 09:59:34;;;;;;;0.80;0.00;;;;;;;9.99;79.13;99551.97;10230948;28;20048;-68
2023/12/23 10:04:36;;;;;;;2.90;0.20;;;;;;;9.99;79.40;99567.22;10216898;29;20054;-67
2023/12/23 10:09:37;;;;;;;0.57;0.10;;;;;;;9.89;79.82;99565.69;10185525;29;20048;-67
2023/12/23 10:14:41;;;;;;;0.38;0.10;;;;;;;9.89;80.14;99548.75;10187218;29;20047;-67
2023/12/23 10:19:43;;;;;;;0.28;0.10;;;;;;;9.92;79.56;99551.06;10186019;29;20060;-67
2023/12/23 10:24:45;;;;;;;0.85;0.10;;;;;;;9.88;79.98;99541.72;10187888;29;20075;-66
2023/12/23 10:29:51;;;;;;;0.45;0.10;;;;;;;9.88;79.99;99522.94;10188817;29;20040;-67
2023/12/23 10:34:59;;;;;;;1.02;0.10;;;;;;;9.90;79.67;99524.38;10182066;29;20403;-67
2023/12/23 10:40:08;;;;;;;0.98;0.20;;;;;;;9.92;79.88;99522.34;10186616;29;20411;-66
2023/12/23 10:45:11;;;;;;;1.45;0.20;;;;;;;9.97;79.70;99537.88;10184684;29;20044;-67
2023/12/23 10:50:14;;;;;;;1.00;0.15;;;;;;;10.00;79.96;99542.03;10190100;29;20032;-67
2023/12/23 10:55:16;;;;;;;0.30;0.10;;;;;;;10.01;79.90;99544.53;10184431;29;20086;-68
2023/12/23 11:00:18;;;;;;;0.00;0.00;;;;;;;10.15;79.65;99547.31;10186472;29;20495;-68
2023/12/23 11:05:22;;;;;;;1.48;0.10;;;;;;;10.15;80.10;99566.13;10181714;29;20066;-68
2023/12/23 11:10:25;;;;;;;2.40;0.00;;;;;;;10.12;80.26;99552.06;10185060;29;20036;-68
2023/12/23 11:15:26;;;;;;;0.10;0.00;;;;;;;10.12;79.80;99549.38;10182862;29;20542;-68
2023/12/23 11:20:50;;;;;;;0.20;0.20;;;;;;;10.11;79.82;99557.63;10178713;29;20454;-69
2023/12/23 11:25:54;;;;;;;0.00;0.00;;;;;;;10.17;79.72;99559.56;10182009;29;20126;-68
2023/12/23 11:30:57;;;;;;;0.77;0.77;;;;;;;10.09;79.90;99557.84;10188610;29;20131;-67
2023/12/23 11:36:00;;;;;;;0.20;0.10;;;;;;;10.13;80.05;99547.53;10186479;29;20518;-68
2023/12/23 11:41:04;;;;;;;1.25;0.10;;;;;;;10.16;79.71;99554.38;10185751;29;20032;-67
2023/12/23 11:46:06;;;;;;;0.47;0.10;;;;;;;10.28;79.53;99545.59;10188599;29;20066;-67
2023/12/23 11:51:09;;;;;;;0.57;0.10;;;;;;;10.40;78.49;99547.78;10191101;29;20088;-67
2023/12/23 11:56:11;;;;;;;0.40;0.10;;;;;;;10.57;77.34;99542.97;10174285;29;20094;-66
2023/12/23 12:01:13;;;;;;;0.40;0.10;;;;;;;10.65;77.48;99551.69;10195843;29;20036;-69
2023/12/23 12:06:14;;;;;;;0.30;0.00;;;;;;;10.61;77.06;99539.69;10198109;29;20047;-67
2023/12/23 12:11:17;;;;;;;0.65;0.10;;;;;;;10.62;77.16;99549.38;10190797;29;20043;-68
2023/12/23 12:16:18;;;;;;;0.10;0.00;;;;;;;10.63;76.21;99540.31;10193852;29;20053;-66
2023/12/23 12:21:20;;;;;;;0.40;0.10;;;;;;;10.72;76.17;99535.59;10192816;29;20118;-68
2023/12/23 12:26:22;;;;;;;1.25;0.10;;;;;;;10.84;75.99;99525.97;10189734;29;20054;-66
2023/12/23 12:31:24;;;;;;;0.55;0.10;;;;;;;11.00;75.25;99554.41;10188063;29;20043;-68
2023/12/23 12:36:25;;;;;;;0.08;0.00;;;;;;;11.07;74.55;99528.34;10196509;29;20246;-68
2023/12/23 12:41:27;;;;;;;0.93;0.55;;;;;;;11.15;74.68;99507.72;10185791;29;20047;-68
2023/12/23 12:46:32;;;;;;;1.48;0.10;;;;;;;11.14;73.71;99517.66;10191235;29;20051;-67
2023/12/23 12:51:35;;;;;;;1.23;0.43;;;;;;;11.23;73.25;99508.34;10192767;29;20046;-67
2023/12/23 12:56:39;;;;;;;0.85;0.20;;;;;;;11.25;73.46;99533.19;10195031;29;20138;-67
2023/12/23 13:01:41;;;;;;;1.13;0.13;;;;;;;11.29;73.05;99536.31;10203995;29;20043;-67
2023/12/23 13:06:42;;;;;;;1.17;0.10;;;;;;;11.35;72.91;99546.25;10237202;28;20079;-67
2023/12/23 13:11:44;;;;;;;0.57;0.10;;;;;;;11.38;73.09;99545.88;10238834;28;20028;-67
2023/12/23 13:16:45;;;;;;;1.27;0.10;;;;;;;11.46;72.83;99564.53;10320589;23;20046;-85
2023/12/23 13:21:48;;;;;;;0.30;0.13;;;;;;;11.52;72.75;99563.72;10320888;28;20043;-85
2023/12/23 13:26:50;;;;;;;2.25;0.20;;;;;;;11.51;72.74;99572.84;10321655;28;20056;-85
2023/12/23 13:31:51;;;;;;;0.43;0.20;;;;;;;11.50;72.55;99587.31;10327692;28;20065;-85
2023/12/23 13:36:53;;;;;;;0.73;0.10;;;;;;;11.36;73.23;99599.06;10327841;28;20046;-87
2023/12/23 13:41:55;;;;;;;0.85;0.10;;;;;;;11.21;73.32;99598.38;10328706;28;20046;-86
2023/12/23 13:47:00;;;;;;;1.65;0.10;;;;;;;11.22;73.90;99613.50;10313554;28;20034;-85
2023/12/23 13:52:02;;;;;;;2.75;0.20;;;;;;;11.16;73.39;99612.41;10335734;28;20050;-86
2023/12/23 13:57:04;;;;;;;2.28;0.20;;;;;;;11.27;73.71;99619.09;10320059;28;20496;-85
2023/12/23 14:02:07;;;;;;;0.38;0.10;;;;;;;11.41;73.26;99617.28;10333592;28;20039;-86
2023/12/23 14:07:09;;;;;;;1.30;0.20;;;;;;;11.48;72.69;99637.00;10328126;28;20101;-86
2023/12/23 14:12:11;;;;;;;0.28;0.10;;;;;;;11.45;73.03;99637.41;10327059;28;20485;-88
2023/12/23 14:17:12;;;;;;;2.90;0.30;;;;;;;11.52;72.92;99647.16;10332941;28;20069;-86
2023/12/23 14:22:14;;;;;;;0.43;0.10;;;;;;;11.50;73.32;99648.41;10353656;28;20030;-84
2023/12/23 14:27:19;;;;;;;2.35;0.40;;;;;;;11.54;73.29;99662.31;10381949;28;20073;-86
2023/12/23 14:32:23;;;;;;;1.27;0.20;;;;;;;11.60;72.85;99662.31;10367220;28;20049;-84
2023/12/23 14:37:24;;;;;;;2.50;0.15;;;;;;;11.69;72.81;99668.38;10373548;28;20030;-84
2023/12/23 14:42:36;;;;;;;0.98;0.10;;;;;;;11.78;71.52;99663.66;10361788;28;20025;-84
2023/12/23 14:47:37;;;;;;;1.55;0.10;;;;;;;11.82;70.86;99660.34;10376981;28;20041;-85
2023/12/23 14:52:39;;;;;;;0.15;0.10;;;;;;;11.86;71.01;99693.91;10377779;28;20034;-85
2023/12/23 14:57:41;;;;;;;1.80;0.15;;;;;;;11.86;69.23;99682.31;10376505;28;20069;-86
2023/12/23 15:02:43;;;;;;;0.80;0.10;;;;;;;11.92;69.25;99689.63;10373190;28;20054;-84
2023/12/23 15:07:45;;;;;;;0.20;0.13;;;;;;;11.98;69.23;99709.53;10369438;28;20043;-86
2023/12/23 15:12:46;;;;;;;0.30;0.00;;;;;;;11.98;68.08;99713.06;10345337;23;20148;-69
2023/12/23 15:17:48;;;;;;;1.85;0.25;;;;;;;11.85;67.94;99732.66;10287485;28;20486;-66
2023/12/23 15:22:49;;;;;;;1.75;0.20;;;;;;;11.84;67.75;99727.47;10265767;28;20078;-64
2023/12/23 15:27:52;;;;;;;2.05;0.10;;;;;;;11.90;67.87;99732.91;10270630;28;20050;-68
2023/12/23 15:32:53;;;;;;;0.45;0.20;;;;;;;11.84;68.50;99749.84;10269165;28;20071;-66
2023/12/23 15:37:55;;;;;;;2.05;0.10;;;;;;;11.66;68.46;99773.75;10262245;28;20116;-68
2023/12/23 15:42:57;;;;;;;3.42;0.20;;;;;;;11.36;69.41;99768.59;10275091;28;20066;-65
2023/12/23 15:47:58;;;;;;;1.35;0.20;;;;;;;11.10;70.77;99771.91;10265542;28;20055;-67
2023/12/23 15:53:01;;;;;;;0.60;0.25;;;;;;;11.05;70.92;99787.78;10264175;28;20054;-67
2023/12/23 15:58:04;;;;;;;3.65;0.25;;;;;;;10.89;71.45;99802.31;10281415;28;20144;-63
2023/12/23 16:03:06;;;;;;;1.10;0.20;;;;;;;10.84;71.38;99789.47;10300258;28;20407;-63
2023/12/23 16:08:09;;;;;;;2.30;0.25;;;;;;;10.93;71.24;99782.09;10272538;28;20070;-64
2023/12/23 16:13:11;;;;;;;0.98;0.17;;;;;;;11.02;71.20;99775.56;10282144;28;20066;-63
2023/12/23 16:18:12;;;;;;;1.17;0.20;;;;;;;11.19;71.17;99768.03;10263307;28;20071;-62
2023/12/23 16:23:14;;;;;;;0.73;0.10;;;;;;;11.29;71.07;99756.94;10294464;28;20043;-63
2023/12/23 16:28:16;;;;;;;0.45;0.13;;;;;;;11.39;70.57;99770.06;10288876;28;20080;-64
2023/12/23 16:33:18;;;;;;;2.35;0.30;;;;;;;11.43;70.60;99771.31;10275719;28;20051;-63
2023/12/23 16:38:19;;;;;;;0.52;0.13;;;;;;;11.47;69.93;99804.88;10293984;28;20145;-64
2023/12/23 16:43:21;;;;;;;0.50;0.43;;;;;;;11.44;69.53;99840.28;10304918;28;20117;-65
2023/12/23 16:48:22;;;;;;;2.67;0.52;;;;;;;11.42;69.36;99829.69;10289927;28;20133;-64
2023/12/23 16:53:24;;;;;;;0.80;0.30;;;;;;;11.12;70.49;99815.59;10279434;28;20039;-64
2023/12/23 16:58:26;;;;;;;1.15;0.20;;;;;;;11.07;71.10;99807.25;10299803;28;20047;-63
2023/12/23 17:03:27;;;;;;;1.55;0.20;;;;;;;11.17;70.76;99815.00;10294105;28;20061;-63
2023/12/23 17:08:29;;;;;;;11.95;0.43;;;;;;;11.25;70.87;99817.53;10277058;28;20046;-67
2023/12/23 17:13:31;;;;;;;0.77;0.20;;;;;;;11.28;70.92;99819.88;10276432;28;20141;-66
2023/12/23 17:18:32;;;;;;;2.85;0.22;;;;;;;11.35;70.68;99825.28;10275641;28;20046;-66
2023/12/23 17:23:34;;;;;;;0.95;0.22;;;;;;;11.43;70.46;99826.00;10273194;28;20046;-66
2023/12/23 17:28:35;;;;;;;1.60;0.40;;;;;;;11.48;69.92;99828.91;10280163;28;20062;-67
2023/12/23 17:33:38;;;;;;;1.52;0.30;;;;;;;11.56;70.22;99835.19;10274041;28;20039;-66
2023/12/23 17:38:42;;;;;;;2.63;0.32;;;;;;;11.59;69.68;99832.97;10276288;28;20098;-65
2023/12/23 17:43:44;;;;;;;3.03;0.20;;;;;;;11.57;69.95;99831.47;10279985;28;20047;-66
2023/12/23 17:48:45;;;;;;;0.95;0.25;;;;;;;11.54;69.86;99846.16;10275248;28;20058;-65
2023/12/23 17:53:47;;;;;;;2.10;0.40;;;;;;;11.52;70.13;99845.53;10274487;28;20064;-65
2023/12/23 17:58:48;;;;;;;1.05;0.40;;;;;;;11.51;70.06;99836.63;10272110;28;20049;-68
2023/12/23 18:03:50;;;;;;;0.52;0.22;;;;;;;11.49;69.92;99833.28;10275129;28;20054;-66
2023/12/23 18:08:51;;;;;;;0.95;0.20;;;;;;;11.56;69.70;99837.91;10276790;28;20043;-66
2023/12/23 18:13:53;;;;;;;3.15;0.40;;;;;;;11.55;69.57;99839.72;10286017;28;20061;-65
2023/12/23 18:18:54;;;;;;;3.17;0.20;;;;;;;11.53;69.67;99836.41;10318266;28;20023;-64
2023/12/23 18:23:55;;;;;;;0.50;0.15;;;;;;;11.50;70.23;99837.63;10321088;28;20050;-64
2023/12/23 18:28:57;;;;;;;1.42;0.40;;;;;;;11.52;70.41;99826.69;10305879;28;20054;-64
2023/12/23 18:33:58;;;;;;;1.27;0.30;;;;;;;11.46;70.50;99836.34;10318988;28;20051;-64
2023/12/23 18:39:00;;;;;;;2.10;0.25;;;;;;;11.42;70.75;99836.94;10320423;28;20070;-64
2023/12/23 18:44:02;;;;;;;0.82;0.30;;;;;;;11.30;71.38;99840.16;10315962;28;20042;-64
2023/12/23 18:49:03;;;;;;;0.75;0.20;;;;;;;11.25;71.41;99841.75;10319768;28;20055;-64
2023/12/23 18:54:05;;;;;;;0.68;0.20;;;;;;;11.22;71.73;99845.69;10296469;28;20042;-64
2023/12/23 18:59:06;;;;;;;1.02;0.38;;;;;;;11.19;71.73;99840.66;10318075;28;20031;-64
2023/12/23 19:04:08;;;;;;;1.67;0.35;;;;;;;11.17;71.85;99837.34;10323899;28;20031;-63
2023/12/23 19:09:09;;;;;;;0.82;0.20;;;;;;;11.26;71.77;99840.75;10317796;28;20061;-64
2023/12/23 19:14:11;;;;;;;4.55;0.25;;;;;;;11.30;71.09;99840.16;10317153;28;20053;-64
2023/12/23 19:19:12;;;;;;;0.57;0.22;;;;;;;11.36;70.84;99825.09;10321016;28;20065;-65
2023/12/23 19:24:14;;;;;;;3.33;0.30;;;;;;;11.39;70.74;99823.88;10310579;28;20062;-64
2023/12/23 19:29:15;;;;;;;0.40;0.20;;;;;;;11.41;70.85;99843.34;10300432;28;20044;-65
2023/12/23 19:34:18;;;;;;;0.80;0.15;;;;;;;11.38;70.41;99839.19;10286513;28;20087;-64
2023/12/23 19:39:20;;;;;;;0.20;0.10;;;;;;;11.37;70.52;99850.97;10264967;28;20126;-65
2023/12/23 19:44:24;;;;;;;0.35;0.00;;;;;;;11.47;69.84;99848.81;10301570;28;20067;-65
2023/12/23 19:49:26;;;;;;;0.50;0.38;;;;;;;11.57;68.71;99840.41;10288636;28;20053;-64
2023/12/23 19:54:27;;;;;;;1.65;0.22;;;;;;;11.51;68.55;99842.00;10275459;28;20070;-66
2023/12/23 19:59:29;;;;;;;0.90;0.22;;;;;;;11.51;68.86;99842.00;10280093;28;20038;-65
2023/12/23 20:04:30;;;;;;;1.13;0.32;;;;;;;11.46;68.51;99847.13;10276609;28;20047;-65
2023/12/23 20:09:34;;;;;;;1.17;0.10;;;;;;;11.49;68.90;99854.81;10279734;28;20070;-66
2023/12/23 20:14:38;;;;;;;0.40;0.20;;;;;;;11.39;69.23;99845.41;10271069;28;20058;-66
2023/12/23 20:19:40;;;;;;;0.17;0.10;;;;;;;11.30;69.59;99856.31;10266723;28;20042;-66
2023/12/23 20:24:41;;;;;;;0.43;0.20;;;;;;;11.26;69.66;99854.19;10277011;28;20053;-65
2023/12/23 20:29:43;;;;;;;0.20;0.20;;;;;;;11.22;69.55;99853.75;10291341;28;20082;-64
2023/12/23 20:34:44;;;;;;;0.60;0.20;;;;;;;11.23;69.46;99847.31;10300193;28;20044;-65
2023/12/23 20:39:45;;;;;;;1.75;0.63;;;;;;;11.21;69.64;99862.81;10311982;28;20094;-65
2023/12/23 20:44:47;;;;;;;0.68;0.10;;;;;;;11.20;69.33;99868.44;10316592;28;20051;-65
2023/12/23 20:49:49;;;;;;;0.65;0.20;;;;;;;11.17;69.31;99856.16;10315895;28;20087;-65
2023/12/23 20:54:50;;;;;;;0.80;0.68;;;;;;;11.13;69.46;99835.25;10313532;28;20035;-65
2023/12/23 20:59:51;;;;;;;1.77;0.30;;;;;;;11.01;69.64;99826.84;10319595;28;20039;-65
2023/12/23 21:04:53;;;;;;;1.95;0.17;;;;;;;10.96;69.71;99843.56;10318925;28;20051;-65
2023/12/23 21:09:55;;;;;;;0.85;0.20;;;;;;;10.96;69.32;99821.19;10317366;28;20043;-65
2023/12/23 21:14:56;;;;;;;0.10;0.00;;;;;;;10.91;69.56;99802.97;10307057;28;20035;-64
2023/12/23 21:19:58;;;;;;;0.70;0.10;;;;;;;10.96;69.01;99824.75;10310766;28;20031;-65
2023/12/23 21:24:59;;;;;;;0.63;0.10;;;;;;;10.94;68.85;99824.09;10314210;28;20066;-65
2023/12/23 21:30:01;;;;;;;0.10;0.10;;;;;;;10.94;68.83;99818.72;10306820;23;20069;-83
2023/12/23 21:35:03;;;;;;;0.30;0.10;;;;;;;10.91;68.89;99840.59;10245994;28;20051;-84
2023/12/23 21:40:05;;;;;;;0.00;0.00;;;;;;;10.91;68.90;99844.13;10203736;28;20049;-83
2023/12/23 21:45:07;;;;;;;1.23;0.10;;;;;;;10.86;69.03;99849.25;10199224;28;20443;-83
2023/12/23 21:50:09;;;;;;;0.52;0.30;;;;;;;10.87;69.30;99861.66;10235809;28;20044;-83
2023/12/23 21:55:10;;;;;;;0.05;0.05;;;;;;;10.88;69.49;99857.09;10220902;28;20044;-82
2023/12/23 22:00:13;;;;;;;0.50;0.10;;;;;;;10.91;68.70;99856.75;10227323;28;20542;-83
2023/12/23 22:05:14;;;;;;;0.30;0.10;;;;;;;10.97;68.78;99860.53;10220133;28;20067;-83
2023/12/23 22:10:16;;;;;;;0.52;0.03;;;;;;;10.97;68.63;99845.22;10231850;28;20051;-84
2023/12/23 22:15:17;;;;;;;0.10;0.10;;;;;;;10.91;68.31;99841.44;10225816;28;20138;-84
2023/12/23 22:20:20;;;;;;;1.20;0.10;;;;;;;10.91;68.29;99848.66;10226667;28;20094;-83
2023/12/23 22:25:21;;;;;;;2.22;0.10;;;;;;;10.93;67.95;99849.31;10225389;28;20571;-82
2023/12/23 22:30:23;;;;;;;0.20;0.10;;;;;;;10.99;67.63;99853.94;10247557;28;20407;-83
2023/12/23 22:35:25;;;;;;;0.70;0.22;;;;;;;11.11;66.28;99886.53;10225195;28;20071;-83
2023/12/23 22:40:26;;;;;;;0.70;0.20;;;;;;;11.27;65.99;99870.13;10216645;28;20057;-83
2023/12/23 22:45:28;;;;;;;1.35;0.10;;;;;;;11.39;65.94;99878.50;10238756;28;20047;-83
2023/12/23 22:50:29;;;;;;;0.17;0.15;;;;;;;11.42;66.04;99882.72;10233785;29;20139;-83
2023/12/23 22:55:31;;;;;;;0.95;0.10;;;;;;;11.33;66.60;99879.28;10214614;28;20130;-83
2023/12/23 23:00:33;;;;;;;0.30;0.10;;;;;;;11.25;66.76;99864.09;10228475;28;20052;-83
2023/12/23 23:05:35;;;;;;;1.05;0.10;;;;;;;11.22;66.66;99874.44;10223888;28;20062;-83
2023/12/23 23:10:36;;;;;;;0.20;0.00;;;;;;;11.18;66.79;99862.41;10234233;28;20075;-83
2023/12/23 23:15:38;;;;;;;1.00;0.10;;;;;;;11.07;67.47;99853.78;10228635;28;20054;-83
2023/12/23 23:20:40;;;;;;;1.38;0.43;;;;;;;11.05;68.01;99863.09;10222395;28;20047;-84
2023/12/23 23:25:42;;;;;;;0.10;0.00;;;;;;;10.97;68.63;99858.66;10222690;28;20517;-84
2023/12/23 23:30:44;;;;;;;1.50;0.10;;;;;;;10.94;68.88;99850.13;10214973;28;20063;-84
2023/12/23 23:35:45;;;;;;;0.60;0.10;;;;;;;10.90;68.93;99842.47;10226810;28;20048;-83